createdAt,value
2018-07-06T00:02:00.829Z,96848.13
2018-07-06T00:04:42.219Z,96846.37
2018-07-06T00:07:23.436Z,96841.27
2018-07-06T00:10:04.997Z,96846.93
2018-07-06T00:12:46.218Z,96850.88
2018-07-06T00:15:27.247Z,96846.12
2018-07-06T00:18:08.790Z,96847.45
2018-07-06T00:20:49.350Z,96847.02
2018-07-06T00:23:30.685Z,96848.30
2018-07-06T00:26:11.967Z,96851.72
2018-07-06T00:28:53.437Z,96850.14
2018-07-06T00:31:34.839Z,96851.05
2018-07-06T00:34:16.228Z,96846.42
2018-07-06T00:36:58.436Z,96854.17
2018-07-06T00:39:39.666Z,96853.73
2018-07-06T00:42:20.601Z,96855.50
2018-07-06T00:45:02.013Z,96863.20
2018-07-06T00:47:43.557Z,96861.58
2018-07-06T00:50:24.781Z,96857.46
2018-07-06T00:53:05.920Z,96858.75
2018-07-06T00:55:47.306Z,96864.36
2018-07-06T00:58:28.693Z,96865.77
2018-07-06T01:01:10.083Z,96865.45
2018-07-06T01:03:51.725Z,96864.64
2018-07-06T01:06:33.258Z,96860.36
2018-07-06T01:09:14.237Z,96866.73
2018-07-06T01:11:55.466Z,96867.25
2018-07-06T01:14:36.946Z,96866.47
2018-07-06T01:17:17.747Z,96861.34
2018-07-06T01:19:58.952Z,96865.11
2018-07-06T01:22:40.205Z,96869.04
2018-07-06T01:25:21.043Z,96869.52
2018-07-06T01:28:02.127Z,96870.88
2018-07-06T01:30:43.663Z,96861.42
2018-07-06T01:33:24.647Z,96863.09
2018-07-06T01:36:05.874Z,96858.47
2018-07-06T01:38:47.425Z,96865.67
2018-07-06T01:41:28.295Z,96862.31
2018-07-06T01:44:09.781Z,96863.17
2018-07-06T01:46:51.139Z,96861.46
2018-07-06T01:49:32.488Z,96858.86
2018-07-06T01:52:13.933Z,96859.75
2018-07-06T01:54:55.344Z,96858.11
2018-07-06T01:57:36.634Z,96862.91
2018-07-06T02:00:17.681Z,96862.63
2018-07-06T02:02:58.653Z,96852.47
2018-07-06T02:05:39.902Z,96861.89
2018-07-06T02:08:20.994Z,96852.94
2018-07-06T02:11:02.228Z,96855.16
2018-07-06T02:13:43.609Z,96856.41
2018-07-06T02:16:24.756Z,96856.80
2018-07-06T02:19:06.142Z,96853.33
2018-07-06T02:21:47.116Z,96855.04
2018-07-06T02:24:28.505Z,96850.80
2018-07-06T02:27:09.371Z,96852.48
2018-07-06T02:29:50.341Z,96850.38
2018-07-06T02:32:32.498Z,96850.38
2018-07-06T02:35:13.904Z,96845.74
2018-07-06T02:37:55.405Z,96849.17
2018-07-06T02:40:36.400Z,96853.80
2018-07-06T02:43:17.637Z,96852.55
2018-07-06T02:45:59.464Z,96853.84
2018-07-06T02:48:40.413Z,96852.02
2018-07-06T02:51:21.316Z,96858.78
2018-07-06T02:54:02.922Z,96859.13
2018-07-06T02:56:43.903Z,96853.09
2018-07-06T02:59:24.865Z,96857.38
2018-07-06T03:02:06.509Z,96858.23
2018-07-06T03:04:47.876Z,96856.48
2018-07-06T03:07:29.430Z,96854.73
2018-07-06T03:10:10.660Z,96851.74
2018-07-06T03:12:51.551Z,96849.98
2018-07-06T03:15:32.185Z,96851.73
2018-07-06T03:18:13.592Z,96853.02
2018-07-06T03:20:54.678Z,96860.80
2018-07-06T03:23:35.685Z,96857.49
2018-07-06T03:26:17.071Z,96849.80
2018-07-06T03:28:57.874Z,96849.83
2018-07-06T03:31:38.583Z,96851.62
2018-07-06T03:34:19.491Z,96854.19
2018-07-06T03:36:59.990Z,96848.31
2018-07-06T03:39:41.082Z,96851.38
2018-07-06T03:42:21.901Z,96845.36
2018-07-06T03:45:03.493Z,96847.49
2018-07-06T03:47:44.887Z,96850.38
2018-07-06T03:50:25.737Z,96853.33
2018-07-06T03:53:07.121Z,96849.05
2018-07-06T03:55:48.521Z,96852.55
2018-07-06T03:58:29.913Z,96854.30
2018-07-06T04:01:11.301Z,96850.45
2018-07-06T04:03:52.732Z,96851.77
2018-07-06T04:06:34.018Z,96848.77
2018-07-06T04:09:15.586Z,96849.98
2018-07-06T04:11:56.765Z,96849.05
2018-07-06T04:14:38.197Z,96849.87
2018-07-06T04:17:19.668Z,96850.72
2018-07-06T04:20:00.941Z,96855.47
2018-07-06T04:22:42.464Z,96852.98
2018-07-06T04:25:23.860Z,96861.07
2018-07-06T04:28:04.434Z,96860.14
2018-07-06T04:30:45.740Z,96859.17
2018-07-06T04:33:26.788Z,96861.73
2018-07-06T04:36:08.480Z,96859.52
2018-07-06T04:38:49.557Z,96860.34
2018-07-06T04:41:30.796Z,96862.55
2018-07-06T04:44:11.901Z,96861.23
2018-07-06T04:46:53.130Z,96859.87
2018-07-06T04:49:34.163Z,96860.73
2018-07-06T04:52:15.459Z,96862.44
2018-07-06T04:54:56.322Z,96863.30
2018-07-06T04:57:37.811Z,96862.52
2018-07-06T05:00:18.723Z,96870.18
2018-07-06T05:02:59.997Z,96864.58
2018-07-06T05:05:40.510Z,96873.10
2018-07-06T05:08:22.124Z,96870.92
2018-07-06T05:11:03.516Z,96871.00
2018-07-06T05:13:44.696Z,96871.16
2018-07-06T05:16:26.101Z,96876.28
2018-07-06T05:19:07.136Z,96875.39
2018-07-06T05:21:48.144Z,96875.39
2018-07-06T05:24:29.508Z,96880.14
2018-07-06T05:27:10.634Z,96879.83
2018-07-06T05:29:51.853Z,96884.92
2018-07-06T05:32:33.360Z,96890.48
2018-07-06T05:35:14.124Z,96888.31
2018-07-06T05:37:54.807Z,96887.14
2018-07-06T05:40:36.126Z,96892.81
2018-07-06T05:43:16.732Z,96894.52
2018-07-06T05:45:58.125Z,96892.06
2018-07-06T05:48:39.059Z,96894.63
2018-07-06T05:51:20.603Z,96901.02
2018-07-06T05:54:01.583Z,96903.47
2018-07-06T05:56:42.951Z,96896.20
2018-07-06T05:59:23.686Z,96899.58
2018-07-06T06:02:05.265Z,96902.08
2018-07-06T06:04:46.684Z,96901.33
2018-07-06T06:07:21.138Z,96899.98
2018-07-06T06:09:51.804Z,96905.65
2018-07-06T06:12:23.780Z,96901.41
2018-07-06T06:14:55.092Z,96902.23
2018-07-06T06:17:26.024Z,96897.88
2018-07-06T06:19:56.705Z,96900.33
2018-07-06T06:22:27.081Z,96905.07
2018-07-06T06:24:57.660Z,96903.79
2018-07-06T06:27:28.237Z,96901.22
2018-07-06T06:29:58.857Z,96900.80
2018-07-06T06:32:29.637Z,96905.93
2018-07-06T06:35:01.537Z,96903.36
2018-07-06T06:37:32.340Z,96909.74
2018-07-06T06:40:03.168Z,96907.10
2018-07-06T06:42:33.779Z,96910.41
2018-07-06T06:45:04.277Z,96911.63
2018-07-06T06:47:35.328Z,96919.79
2018-07-06T06:50:05.597Z,96920.42
2018-07-06T06:52:36.417Z,96918.44
2018-07-06T06:55:07.065Z,96912.02
2018-07-06T06:57:37.935Z,96915.87
2018-07-06T07:00:08.947Z,96919.29
2018-07-06T07:02:39.269Z,96914.97
2018-07-06T07:05:09.814Z,96922.64
2018-07-06T07:07:40.433Z,96921.36
2018-07-06T07:10:11.341Z,96922.64
2018-07-06T07:12:42.080Z,96916.69
2018-07-06T07:15:12.876Z,96920.96
2018-07-06T07:17:44.371Z,96921.78
2018-07-06T07:20:15.125Z,96925.12
2018-07-06T07:22:45.853Z,96922.64
2018-07-06T07:25:16.527Z,96926.41
2018-07-06T07:27:47.281Z,96923.80
2018-07-06T07:30:18.171Z,96923.25
2018-07-06T07:32:49.068Z,96919.83
2018-07-06T07:35:19.603Z,96921.58
2018-07-06T07:37:50.829Z,96925.91
2018-07-06T07:40:21.074Z,96923.33
2018-07-06T07:42:52.189Z,96924.54
2018-07-06T07:45:22.910Z,96925.78
2018-07-06T07:47:53.462Z,96921.50
2018-07-06T07:50:24.025Z,96918.03
2018-07-06T07:53:04.523Z,96921.30
2018-07-06T07:55:34.879Z,96921.14
2018-07-06T07:58:04.901Z,96922.37
2018-07-06T08:00:35.638Z,96917.55
2018-07-06T08:03:07.026Z,96918.31
2018-07-06T08:05:36.904Z,96923.58
2018-07-06T08:08:07.822Z,96929.62
2018-07-06T08:10:37.696Z,96927.91
2018-07-06T08:13:08.065Z,96925.25
2018-07-06T08:15:38.377Z,96931.16
2018-07-06T08:18:09.007Z,96936.48
2018-07-06T08:20:39.846Z,96930.31
2018-07-06T08:23:10.188Z,96937.43
2018-07-06T08:25:40.748Z,96938.02
2018-07-06T08:28:11.691Z,96939.55
2018-07-06T08:30:42.494Z,96936.22
2018-07-06T08:33:13.396Z,96940.56
2018-07-06T08:35:54.583Z,96939.76
2018-07-06T08:38:25.191Z,96940.86
2018-07-06T08:40:55.771Z,96945.00
2018-07-06T08:43:26.600Z,96943.14
2018-07-06T08:45:57.254Z,96942.00
2018-07-06T08:48:27.420Z,96944.48
2018-07-06T08:50:58.315Z,96945.23
2018-07-06T08:53:29.051Z,96949.40
2018-07-06T08:55:59.719Z,96949.09
2018-07-06T08:58:30.201Z,96943.85
2018-07-06T09:01:01.330Z,96949.59
2018-07-06T09:03:32.039Z,96950.63
2018-07-06T09:06:03.105Z,96950.69
2018-07-06T09:08:33.668Z,96956.17
2018-07-06T09:11:04.060Z,96954.72
2018-07-06T09:13:34.642Z,96949.95
2018-07-06T09:16:05.266Z,96952.95
2018-07-06T09:18:35.744Z,96955.05
2018-07-06T09:21:06.349Z,96958.23
2018-07-06T09:23:37.126Z,96960.44
2018-07-06T09:26:08.096Z,96959.26
2018-07-06T09:28:38.751Z,96963.83
2018-07-06T09:31:09.694Z,96960.77
2018-07-06T09:33:40.106Z,96961.52
2018-07-06T09:36:10.473Z,96959.11
2018-07-06T09:38:41.114Z,96958.25
2018-07-06T09:41:11.507Z,96961.84
2018-07-06T09:43:42.186Z,96967.55
2018-07-06T09:46:12.845Z,96970.02
2018-07-06T09:48:43.514Z,96967.27
2018-07-06T09:51:14.353Z,96965.48
2018-07-06T09:53:45.109Z,96970.83
2018-07-06T09:56:15.843Z,96969.05
2018-07-06T09:58:46.585Z,96975.91
2018-07-06T10:01:16.961Z,96976.67
2018-07-06T10:03:47.620Z,96981.05
2018-07-06T10:06:18.176Z,96978.86
2018-07-06T10:08:49.234Z,96974.86
2018-07-06T10:11:20.368Z,96977.24
2018-07-06T10:13:50.816Z,96979.01
2018-07-06T10:16:21.557Z,96984.92
2018-07-06T10:18:52.481Z,96988.85
2018-07-06T10:21:24.233Z,96991.88
2018-07-06T10:23:54.873Z,96988.92
2018-07-06T10:26:24.942Z,96988.80
2018-07-06T10:29:36.588Z,96988.38
2018-07-06T10:32:22.023Z,96994.60
2018-07-06T10:34:52.701Z,97004.27
2018-07-06T10:37:23.357Z,97000.87
2018-07-06T10:39:54.315Z,97007.91
2018-07-06T10:42:24.535Z,97000.72
2018-07-06T10:44:55.284Z,97004.84
2018-07-06T10:47:26.365Z,97007.48
2018-07-06T10:49:56.715Z,97001.16
2018-07-06T10:52:27.226Z,97003.38
2018-07-06T10:54:57.803Z,97006.52
2018-07-06T10:57:28.444Z,96999.48
2018-07-06T10:59:58.822Z,97002.48
2018-07-06T11:02:29.849Z,97000.42
2018-07-06T11:05:00.630Z,96999.50
2018-07-06T11:07:31.262Z,97003.21
2018-07-06T11:10:01.352Z,96996.90
2018-07-06T11:12:31.295Z,97001.57
2018-07-06T11:15:02.302Z,97004.72
2018-07-06T11:17:32.730Z,97001.62
2018-07-06T11:20:03.404Z,97000.81
2018-07-06T11:22:34.070Z,97000.58
2018-07-06T11:25:04.616Z,96996.80
2018-07-06T11:27:35.996Z,96997.00
2018-07-06T11:30:06.402Z,97000.67
2018-07-06T11:32:36.995Z,96996.34
2018-07-06T11:35:07.709Z,96998.34
2018-07-06T11:37:38.473Z,96996.34
2018-07-06T11:40:09.361Z,96996.44
2018-07-06T11:42:40.096Z,96995.20
2018-07-06T11:45:10.756Z,96994.00
2018-07-06T11:47:41.100Z,96998.99
2018-07-06T11:50:11.512Z,96997.70
2018-07-06T11:52:42.474Z,96997.12
2018-07-06T11:55:12.952Z,96996.94
2018-07-06T11:57:43.580Z,97000.66
2018-07-06T12:00:14.320Z,97003.60
2018-07-06T12:02:44.921Z,97001.95
2018-07-06T12:05:15.873Z,97008.55
2018-07-06T12:07:46.600Z,97014.89
2018-07-06T12:10:16.960Z,97019.47
2018-07-06T12:12:47.626Z,97021.19
2018-07-06T12:15:18.281Z,97027.41
2018-07-06T12:17:48.956Z,97029.58
2018-07-06T12:20:19.662Z,97025.56
2018-07-06T12:22:50.606Z,97031.25
2018-07-06T12:25:20.919Z,97030.45
2018-07-06T12:27:51.309Z,97038.25
2018-07-06T12:30:22.005Z,97035.41
2018-07-06T12:32:52.752Z,97033.36
2018-07-06T12:35:23.408Z,97035.22
2018-07-06T12:37:53.775Z,97041.55
2018-07-06T12:40:24.146Z,97040.32
2018-07-06T12:42:54.840Z,97040.34
2018-07-06T12:45:25.334Z,97044.91
2018-07-06T12:47:55.651Z,97041.53
2018-07-06T12:50:26.289Z,97045.83
2018-07-06T12:52:57.362Z,97047.35
2018-07-06T12:55:28.117Z,97054.83
2018-07-06T12:57:58.710Z,97046.38
2018-07-06T13:00:29.502Z,97046.44
2018-07-06T13:03:00.195Z,97046.95
2018-07-06T13:05:30.950Z,97046.61
2018-07-06T13:08:01.619Z,97051.67
2018-07-06T13:10:31.759Z,97051.89
2018-07-06T13:13:02.482Z,97054.47
2018-07-06T13:15:33.453Z,97059.63
2018-07-06T13:18:03.505Z,97052.84
2018-07-06T13:20:34.125Z,97057.94
2018-07-06T13:23:05.188Z,97063.26
2018-07-06T13:25:36.090Z,97063.51
2018-07-06T13:28:06.416Z,97060.80
2018-07-06T13:30:36.823Z,97070.39
2018-07-06T13:33:07.360Z,97066.80
2018-07-06T13:35:37.837Z,97064.95
2018-07-06T13:38:08.549Z,97067.91
2018-07-06T13:40:38.936Z,97065.09
2018-07-06T13:43:09.921Z,97066.56
2018-07-06T13:45:40.349Z,97062.22
2018-07-06T13:48:10.600Z,97059.70
2018-07-06T13:50:41.529Z,97061.17
2018-07-06T13:53:12.263Z,97068.58
2018-07-06T13:55:42.937Z,97068.72
2018-07-06T13:58:13.543Z,97068.00
2018-07-06T14:00:43.975Z,97074.83
2018-07-06T14:03:13.932Z,97068.11
2018-07-06T14:05:44.454Z,97071.20
2018-07-06T14:08:15.073Z,97079.31
2018-07-06T14:10:45.736Z,97080.49
2018-07-06T14:13:16.305Z,97075.16
2018-07-06T14:15:47.018Z,97084.13
2018-07-06T14:18:17.899Z,97090.00
2018-07-06T14:20:47.885Z,97091.85
2018-07-06T14:23:18.515Z,97096.92
2018-07-06T14:25:48.553Z,97098.59
2018-07-06T14:28:19.435Z,97094.39
2018-07-06T14:30:50.201Z,97101.65
2018-07-06T14:33:20.945Z,97100.36
2018-07-06T14:35:51.275Z,97107.22
2018-07-06T14:38:21.606Z,97112.61
2018-07-06T14:40:52.349Z,97114.56
2018-07-06T14:43:23.062Z,97114.66
2018-07-06T14:45:53.516Z,97113.98
2018-07-06T14:48:24.146Z,97103.77
2018-07-06T14:50:54.600Z,97100.29
2018-07-06T14:53:25.104Z,97101.70
2018-07-06T14:55:56.099Z,97104.71
2018-07-06T14:58:26.292Z,97107.15
2018-07-06T15:00:56.690Z,97106.34
2018-07-06T15:03:27.272Z,97105.82
2018-07-06T15:05:58.086Z,97098.05
2018-07-06T15:08:28.775Z,97100.29
2018-07-06T15:10:59.522Z,97098.47
2018-07-06T15:13:30.147Z,97099.53
2018-07-06T15:16:02.067Z,97098.30
2018-07-06T15:18:32.638Z,97105.83
2018-07-06T15:21:03.715Z,97107.89
2018-07-06T15:23:34.064Z,97103.11
2018-07-06T15:26:04.530Z,97103.92
2018-07-06T15:28:35.225Z,97107.33
2018-07-06T15:31:05.927Z,97114.95
2018-07-06T15:33:36.513Z,97111.81
2018-07-06T15:36:07.423Z,97114.00
2018-07-06T15:38:37.352Z,97111.09
2018-07-06T15:41:08.321Z,97114.14
2018-07-06T15:43:38.780Z,97113.89
2018-07-06T15:46:09.842Z,97116.14
2018-07-06T15:48:40.379Z,97123.48
2018-07-06T15:51:10.997Z,97122.20
2018-07-06T15:53:41.505Z,97123.16
2018-07-06T15:56:12.212Z,97126.58
2018-07-06T15:58:43.050Z,97125.30
2018-07-06T16:01:13.483Z,97129.94
2018-07-06T16:03:44.107Z,97118.77
2018-07-06T16:06:14.839Z,97120.58
2018-07-06T16:08:45.976Z,97121.48
2018-07-06T16:11:16.729Z,97127.06
2018-07-06T16:13:47.392Z,97128.39
2018-07-06T16:16:18.754Z,97124.28
2018-07-06T16:18:49.365Z,97126.03
2018-07-06T16:21:19.790Z,97127.33
2018-07-06T16:23:50.255Z,97126.13
2018-07-06T16:26:21.335Z,97127.08
2018-07-06T16:28:55.348Z,97126.26
2018-07-06T16:31:25.950Z,97131.91
2018-07-06T16:33:57.149Z,97129.08
2018-07-06T16:36:27.150Z,97125.69
2018-07-06T16:38:58.030Z,97124.02
2018-07-06T16:41:28.842Z,97124.14
2018-07-06T16:43:59.600Z,97127.19
2018-07-06T16:46:30.034Z,97128.95
2018-07-06T16:49:01.092Z,97140.88
2018-07-06T16:51:31.509Z,97144.66
2018-07-06T16:54:01.313Z,97142.47
2018-07-06T16:56:31.795Z,97142.47
2018-07-06T16:59:02.688Z,97141.14
2018-07-06T17:01:33.240Z,97140.45
2018-07-06T17:04:03.133Z,97137.95
2018-07-06T17:06:34.131Z,97141.89
2018-07-06T17:09:05.911Z,97145.76
2018-07-06T17:11:36.838Z,97138.03
2018-07-06T17:14:07.539Z,97137.48
2018-07-06T17:16:37.993Z,97140.83
2018-07-06T17:19:08.614Z,97145.52
2018-07-06T17:21:39.546Z,97145.98
2018-07-06T17:24:10.679Z,97145.47
2018-07-06T17:26:41.014Z,97147.16
2018-07-06T17:29:11.744Z,97144.48
2018-07-06T17:31:42.288Z,97141.05
2018-07-06T17:34:13.009Z,97144.45
2018-07-06T17:36:43.838Z,97133.38
2018-07-06T17:39:14.235Z,97140.98
2018-07-06T17:41:45.045Z,97144.70
2018-07-06T17:44:16.244Z,97140.77
2018-07-06T17:46:46.823Z,97139.00
2018-07-06T17:49:17.174Z,97142.78
2018-07-06T17:51:47.760Z,97143.13
2018-07-06T17:54:18.460Z,97142.17
2018-07-06T17:56:48.907Z,97139.68
2018-07-06T17:59:20.771Z,97139.69
2018-07-06T18:01:51.507Z,97137.16
2018-07-06T18:04:22.308Z,97138.05
2018-07-06T18:06:52.810Z,97139.42
2018-07-06T18:09:23.658Z,97138.61
2018-07-06T18:11:54.292Z,97142.39
2018-07-06T18:14:25.761Z,97138.92
2018-07-06T18:16:56.526Z,97143.20
2018-07-06T18:19:28.692Z,97147.62
2018-07-06T18:21:59.267Z,97143.52
2018-07-06T18:24:30.232Z,97150.25
2018-07-06T18:27:00.665Z,97153.38
2018-07-06T18:29:31.492Z,97154.70
2018-07-06T18:32:02.397Z,97150.46
2018-07-06T18:34:33.127Z,97147.16
2018-07-06T18:37:03.837Z,97153.20
2018-07-06T18:39:34.567Z,97157.61
2018-07-06T18:42:04.786Z,97153.80
2018-07-06T18:44:34.726Z,97163.81
2018-07-06T18:47:05.745Z,97158.75
2018-07-06T18:49:36.130Z,97155.91
2018-07-06T18:52:06.810Z,97156.92
2018-07-06T18:54:38.002Z,97169.44
2018-07-06T18:57:08.919Z,97167.80
2018-07-06T18:59:39.483Z,97167.88
2018-07-06T19:04:55.223Z,97172.28
2018-07-06T19:07:25.533Z,97170.59
2018-07-06T19:09:56.620Z,97168.95
2018-07-06T19:12:29.776Z,97172.53
2018-07-06T19:15:00.181Z,97172.64
2018-07-06T19:17:30.961Z,97174.42
2018-07-06T19:20:02.338Z,97177.00
2018-07-06T19:22:33.296Z,97184.71
2018-07-06T19:25:04.190Z,97193.35
2018-07-06T19:27:34.938Z,97196.81
2018-07-06T19:30:05.683Z,97203.70
2018-07-06T19:32:36.495Z,97220.88
2018-07-06T19:35:07.172Z,97238.88
2018-07-06T19:37:37.675Z,97244.88
2018-07-06T19:40:08.170Z,97257.73
2018-07-06T19:42:38.972Z,97259.45
2018-07-06T19:45:09.416Z,97267.09
2018-07-06T19:47:39.591Z,97267.03
2018-07-06T19:50:10.312Z,97272.24
2018-07-06T19:52:41.031Z,97263.24
2018-07-06T19:55:11.846Z,97264.59
2018-07-06T19:57:42.612Z,97271.02
2018-07-06T20:00:13.273Z,97275.86
2018-07-06T20:02:45.068Z,97284.49
2018-07-06T20:05:15.810Z,97284.89
2018-07-06T20:07:46.923Z,97284.52
2018-07-06T20:10:17.155Z,97295.72
2018-07-06T20:12:47.954Z,97303.95
2018-07-06T20:15:18.680Z,97303.55
2018-07-06T20:17:49.438Z,97302.87
2018-07-06T20:20:19.990Z,97304.64
2018-07-06T20:22:50.459Z,97303.84
2018-07-06T20:25:21.592Z,97298.84
2018-07-06T20:27:52.334Z,97300.61
2018-07-06T20:30:23.089Z,97291.35
2018-07-06T20:32:53.749Z,97293.27
2018-07-06T20:35:23.992Z,97289.17
2018-07-06T20:37:54.814Z,97294.87
2018-07-06T20:40:25.193Z,97283.07
2018-07-06T20:42:55.478Z,97293.13
2018-07-06T20:45:26.545Z,97295.36
2018-07-06T20:47:57.293Z,97306.98
2018-07-06T20:50:28.236Z,97311.33
2018-07-06T20:52:58.831Z,97318.66
2018-07-06T20:55:30.605Z,97321.76
2018-07-06T20:58:01.455Z,97320.04
2018-07-06T21:00:32.225Z,97314.94
2018-07-06T21:03:02.837Z,97310.36
2018-07-06T21:05:33.348Z,97318.53
2018-07-06T21:08:03.817Z,97309.59
2018-07-06T21:10:34.808Z,97303.28
2018-07-06T21:13:05.678Z,97308.05
2018-07-06T21:15:36.620Z,97305.92
2018-07-06T21:18:07.779Z,97303.81
2018-07-06T21:20:38.633Z,97299.12
2018-07-06T21:23:09.424Z,97292.34
2018-07-06T21:25:40.483Z,97293.63
2018-07-06T21:28:11.566Z,97295.78
2018-07-06T21:30:42.185Z,97297.94
2018-07-06T21:33:12.157Z,97294.94
2018-07-06T21:35:42.625Z,97305.19
2018-07-06T21:38:13.634Z,97302.22
2018-07-06T21:40:44.571Z,97303.54
2018-07-06T21:43:30.041Z,97299.66
2018-07-06T21:46:01.081Z,97305.63
2018-07-06T21:48:31.040Z,97309.47
2018-07-06T21:51:01.785Z,97312.88
2018-07-06T21:53:33.282Z,97311.59
2018-07-06T21:56:03.824Z,97316.31
2018-07-06T21:58:34.845Z,97315.44
2018-07-06T22:01:06.163Z,97323.95
2018-07-06T22:03:36.976Z,97321.84
2018-07-06T22:06:07.654Z,97332.52
2018-07-06T22:08:38.219Z,97329.12
2018-07-06T22:11:08.730Z,97334.28
2018-07-06T22:13:39.285Z,97331.75
2018-07-06T22:16:09.907Z,97338.59
2018-07-06T22:18:40.269Z,97337.75
2018-07-06T22:21:10.522Z,97333.91
2018-07-06T22:23:40.413Z,97338.63
2018-07-06T22:26:10.784Z,97342.02
2018-07-06T22:28:41.446Z,97336.88
2018-07-06T22:31:12.298Z,97338.17
2018-07-06T22:33:42.996Z,97346.30
2018-07-06T22:36:13.762Z,97344.15
2018-07-06T22:38:44.333Z,97348.41
2018-07-06T22:41:14.831Z,97351.39
2018-07-06T22:43:45.845Z,97352.23
2018-07-06T22:46:16.392Z,97353.48
2018-07-06T22:48:47.281Z,97351.37
2018-07-06T22:51:18.150Z,97348.80
2018-07-06T22:53:48.077Z,97351.37
2018-07-06T22:56:18.390Z,97354.33
2018-07-06T22:58:48.963Z,97344.52
2018-07-06T23:01:21.016Z,97334.31
2018-07-06T23:03:51.438Z,97340.27
2018-07-06T23:06:22.193Z,97345.40
2018-07-06T23:08:52.819Z,97348.84
2018-07-06T23:11:23.509Z,97347.96
2018-07-06T23:13:54.296Z,97344.55
2018-07-06T23:16:24.903Z,97348.87
2018-07-06T23:18:55.535Z,97345.46
2018-07-06T23:21:26.402Z,97346.30
2018-07-06T23:23:57.333Z,97341.21
2018-07-06T23:26:27.929Z,97348.44
2018-07-06T23:28:58.568Z,97342.05
2018-07-06T23:31:29.244Z,97351.45
2018-07-06T23:34:00.313Z,97348.89
2018-07-06T23:36:30.607Z,97352.30
2018-07-06T23:39:01.393Z,97351.05
2018-07-06T23:41:31.968Z,97357.44
2018-07-06T23:44:02.339Z,97352.35
2018-07-06T23:46:32.948Z,97351.07
2018-07-06T23:49:03.473Z,97351.50
2018-07-06T23:51:34.038Z,97353.22
2018-07-06T23:54:04.660Z,97354.08
2018-07-06T23:56:35.528Z,97360.46
2018-07-06T23:59:06.012Z,97370.33
